sensor_id;sensor_type;location;lat;lon;timestamp;pressure;altitude;pressure_sealevel;temperature;humidity
31681;BME280;18281;51.364;9.566;2023-05-02T00:01:03;100034.94;;;10.14;99.83
31681;BME280;18281;51.364;9.566;2023-05-02T00:03:30;100035.94;;;10.11;100.00
31681;BME280;18281;51.364;9.566;2023-05-02T00:05:56;100035.25;;;10.07;100.00
31681;BME280;18281;51.364;9.566;2023-05-02T00:08:22;100034.47;;;10.05;100.00
31681;BME280;18281;51.364;9.566;2023-05-02T00:10:47;100035.50;;;10.03;100.00
31681;BME280;18281;51.364;9.566;2023-05-02T00:13:12;100038.28;;;10.00;100.00
31681;BME280;18281;51.364;9.566;2023-05-02T00:15:38;100033.22;;;9.97;100.00
31681;BME280;18281;51.364;9.566;2023-05-02T00:18:03;100033.94;;;9.99;100.00
31681;BME280;18281;51.364;9.566;2023-05-02T00:20:28;100037.66;;;9.95;100.00
31681;BME280;18281;51.364;9.566;2023-05-02T00:22:54;100040.47;;;9.91;100.00
31681;BME280;18281;51.364;9.566;2023-05-02T00:25:21;100040.28;;;9.95;100.00
31681;BME280;18281;51.364;9.566;2023-05-02T00:27:46;100037.75;;;9.93;100.00
31681;BME280;18281;51.364;9.566;2023-05-02T00:30:15;100036.75;;;9.96;100.00
31681;BME280;18281;51.364;9.566;2023-05-02T00:32:40;100035.31;;;9.90;100.00
31681;BME280;18281;51.364;9.566;2023-05-02T00:35:06;100043.41;;;9.85;100.00
31681;BME280;18281;51.364;9.566;2023-05-02T00:37:31;100039.16;;;9.83;100.00
31681;BME280;18281;51.364;9.566;2023-05-02T00:39:57;100043.56;;;9.82;100.00
31681;BME280;18281;51.364;9.566;2023-05-02T00:42:22;100036.63;;;9.81;100.00
31681;BME280;18281;51.364;9.566;2023-05-02T00:44:48;100040.19;;;9.80;100.00
31681;BME280;18281;51.364;9.566;2023-05-02T00:47:14;100046.00;;;9.85;100.00
31681;BME280;18281;51.364;9.566;2023-05-02T00:49:40;100044.66;;;9.78;100.00
31681;BME280;18281;51.364;9.566;2023-05-02T00:52:05;100050.97;;;9.74;100.00
31681;BME280;18281;51.364;9.566;2023-05-02T00:54:32;100047.44;;;9.75;100.00
31681;BME280;18281;51.364;9.566;2023-05-02T00:56:57;100047.66;;;9.70;100.00
31681;BME280;18281;51.364;9.566;2023-05-02T00:59:23;100059.16;;;9.68;100.00
31681;BME280;18281;51.364;9.566;2023-05-02T01:02:01;100056.44;;;9.69;100.00
31681;BME280;18281;51.364;9.566;2023-05-02T01:04:49;100056.81;;;9.62;100.00
31681;BME280;18281;51.364;9.566;2023-05-02T01:09:58;100054.91;;;9.65;100.00
31681;BME280;18281;51.364;9.566;2023-05-02T01:12:57;100060.28;;;9.62;100.00
31681;BME280;18281;51.364;9.566;2023-05-02T01:15:24;100057.75;;;9.61;100.00
31681;BME280;18281;51.364;9.566;2023-05-02T01:17:51;100058.75;;;9.58;100.00
31681;BME280;18281;51.364;9.566;2023-05-02T01:20:20;100064.00;;;9.58;100.00
31681;BME280;18281;51.364;9.566;2023-05-02T01:22:51;100064.06;;;9.56;100.00
31681;BME280;18281;51.364;9.566;2023-05-02T01:25:42;100065.81;;;9.56;100.00
31681;BME280;18281;51.364;9.566;2023-05-02T01:28:22;100067.44;;;9.58;100.00
31681;BME280;18281;51.364;9.566;2023-05-02T01:30:54;100065.16;;;9.52;100.00
31681;BME280;18281;51.364;9.566;2023-05-02T01:33:23;100063.44;;;9.51;100.00
31681;BME280;18281;51.364;9.566;2023-05-02T01:35:50;100072.16;;;9.52;100.00
31681;BME280;18281;51.364;9.566;2023-05-02T01:38:17;100064.38;;;9.50;100.00
31681;BME280;18281;51.364;9.566;2023-05-02T01:40:44;100063.53;;;9.50;100.00
31681;BME280;18281;51.364;9.566;2023-05-02T01:43:12;100064.28;;;9.52;100.00
31681;BME280;18281;51.364;9.566;2023-05-02T01:45:39;100060.84;;;9.51;100.00
31681;BME280;18281;51.364;9.566;2023-05-02T01:48:08;100066.44;;;9.44;100.00
31681;BME280;18281;51.364;9.566;2023-05-02T01:50:35;100074.47;;;9.40;100.00
31681;BME280;18281;51.364;9.566;2023-05-02T01:53:02;100076.09;;;9.43;100.00
31681;BME280;18281;51.364;9.566;2023-05-02T01:55:28;100066.91;;;9.34;100.00
31681;BME280;18281;51.364;9.566;2023-05-02T01:57:55;100077.31;;;9.36;100.00
31681;BME280;18281;51.364;9.566;2023-05-02T02:00:21;100075.56;;;9.36;100.00
31681;BME280;18281;51.364;9.566;2023-05-02T02:02:50;100079.78;;;9.39;100.00
31681;BME280;18281;51.364;9.566;2023-05-02T02:05:17;100083.25;;;9.39;100.00
31681;BME280;18281;51.364;9.566;2023-05-02T02:07:44;100084.50;;;9.32;100.00
31681;BME280;18281;51.364;9.566;2023-05-02T02:10:10;100080.00;;;9.34;100.00
31681;BME280;18281;51.364;9.566;2023-05-02T02:12:39;100083.56;;;9.33;100.00
31681;BME280;18281;51.364;9.566;2023-05-02T02:15:12;100092.44;;;9.31;100.00
31681;BME280;18281;51.364;9.566;2023-05-02T02:17:44;100089.81;;;9.31;100.00
31681;BME280;18281;51.364;9.566;2023-05-02T02:20:12;100094.25;;;9.29;100.00
31681;BME280;18281;51.364;9.566;2023-05-02T02:22:40;100097.81;;;9.28;100.00
31681;BME280;18281;51.364;9.566;2023-05-02T02:25:10;100101.22;;;9.30;100.00
31681;BME280;18281;51.364;9.566;2023-05-02T02:27:37;100103.19;;;9.24;100.00
31681;BME280;18281;51.364;9.566;2023-05-02T02:30:03;100106.81;;;9.22;100.00
31681;BME280;18281;51.364;9.566;2023-05-02T02:32:28;100114.66;;;9.22;100.00
31681;BME280;18281;51.364;9.566;2023-05-02T02:34:54;100114.75;;;9.20;100.00
31681;BME280;18281;51.364;9.566;2023-05-02T02:37:25;100115.59;;;9.21;100.00
31681;BME280;18281;51.364;9.566;2023-05-02T02:42:44;100119.16;;;9.20;100.00
31681;BME280;18281;51.364;9.566;2023-05-02T02:45:33;100125.16;;;9.22;100.00
31681;BME280;18281;51.364;9.566;2023-05-02T02:48:22;100126.31;;;9.16;100.00
31681;BME280;18281;51.364;9.566;2023-05-02T02:56:31;100127.16;;;8.98;100.00
31681;BME280;18281;51.364;9.566;2023-05-02T02:59:18;100133.75;;;9.06;100.00
31681;BME280;18281;51.364;9.566;2023-05-02T03:01:47;100135.34;;;9.09;100.00
31681;BME280;18281;51.364;9.566;2023-05-02T03:04:19;100138.59;;;9.14;100.00
31681;BME280;18281;51.364;9.566;2023-05-02T03:06:45;100140.53;;;9.11;100.00
31681;BME280;18281;51.364;9.566;2023-05-02T03:09:15;100145.81;;;9.09;100.00
31681;BME280;18281;51.364;9.566;2023-05-02T03:11:43;100153.63;;;9.11;100.00
31681;BME280;18281;51.364;9.566;2023-05-02T03:14:10;100149.31;;;9.10;100.00
31681;BME280;18281;51.364;9.566;2023-05-02T03:16:37;100157.09;;;9.11;100.00
31681;BME280;18281;51.364;9.566;2023-05-02T03:19:04;100158.00;;;9.10;100.00
31681;BME280;18281;51.364;9.566;2023-05-02T03:21:30;100156.63;;;9.03;100.00
31681;BME280;18281;51.364;9.566;2023-05-02T03:24:00;100164.38;;;9.04;100.00
31681;BME280;18281;51.364;9.566;2023-05-02T03:26:25;100168.00;;;9.02;100.00
31681;BME280;18281;51.364;9.566;2023-05-02T03:28:52;100166.28;;;9.01;100.00
31681;BME280;18281;51.364;9.566;2023-05-02T03:31:17;100165.31;;;9.03;100.00
31681;BME280;18281;51.364;9.566;2023-05-02T03:33:42;100160.97;;;9.02;100.00
31681;BME280;18281;51.364;9.566;2023-05-02T03:36:08;100162.69;;;9.03;100.00
31681;BME280;18281;51.364;9.566;2023-05-02T03:38:33;100166.22;;;9.02;100.00
31681;BME280;18281;51.364;9.566;2023-05-02T03:40:59;100174.16;;;9.01;100.00
31681;BME280;18281;51.364;9.566;2023-05-02T03:43:24;100171.53;;;9.01;100.00
31681;BME280;18281;51.364;9.566;2023-05-02T03:45:49;100181.09;;;9.02;100.00
31681;BME280;18281;51.364;9.566;2023-05-02T03:48:15;100175.84;;;9.02;100.00
31681;BME280;18281;51.364;9.566;2023-05-02T03:50:40;100183.97;;;8.96;100.00
31681;BME280;18281;51.364;9.566;2023-05-02T03:53:05;100181.25;;;8.99;100.00
31681;BME280;18281;51.364;9.566;2023-05-02T03:55:32;100193.53;;;8.97;100.00
31681;BME280;18281;51.364;9.566;2023-05-02T03:57:57;100193.44;;;9.00;100.00
31681;BME280;18281;51.364;9.566;2023-05-02T04:00:23;100198.03;;;8.95;100.00
31681;BME280;18281;51.364;9.566;2023-05-02T04:02:48;100199.66;;;8.97;100.00
31681;BME280;18281;51.364;9.566;2023-05-02T04:05:13;100198.84;;;8.95;100.00
31681;BME280;18281;51.364;9.566;2023-05-02T04:07:39;100205.94;;;8.93;100.00
31681;BME280;18281;51.364;9.566;2023-05-02T04:10:04;100211.53;;;8.85;100.00
31681;BME280;18281;51.364;9.566;2023-05-02T04:12:31;100208.00;;;8.86;100.00
31681;BME280;18281;51.364;9.566;2023-05-02T04:14:56;100215.22;;;8.81;100.00
31681;BME280;18281;51.364;9.566;2023-05-02T04:17:21;100216.53;;;8.90;100.00
31681;BME280;18281;51.364;9.566;2023-05-02T04:19:47;100215.56;;;8.93;100.00
31681;BME280;18281;51.364;9.566;2023-05-02T04:22:12;100223.41;;;8.93;100.00
31681;BME280;18281;51.364;9.566;2023-05-02T04:24:37;100226.81;;;8.95;100.00
31681;BME280;18281;51.364;9.566;2023-05-02T04:27:03;100223.25;;;8.96;100.00
31681;BME280;18281;51.364;9.566;2023-05-02T04:29:28;100227.50;;;8.98;100.00
31681;BME280;18281;51.364;9.566;2023-05-02T04:31:53;100232.31;;;8.88;100.00
31681;BME280;18281;51.364;9.566;2023-05-02T04:34:19;100232.97;;;8.94;100.00
31681;BME280;18281;51.364;9.566;2023-05-02T04:36:45;100236.44;;;8.94;100.00
31681;BME280;18281;51.364;9.566;2023-05-02T04:39:11;100240.59;;;8.98;100.00
31681;BME280;18281;51.364;9.566;2023-05-02T04:41:36;100243.38;;;8.95;100.00
31681;BME280;18281;51.364;9.566;2023-05-02T04:44:02;100250.25;;;8.98;100.00
31681;BME280;18281;51.364;9.566;2023-05-02T04:46:27;100249.44;;;8.96;100.00
31681;BME280;18281;51.364;9.566;2023-05-02T04:48:53;100261.78;;;8.94;100.00
31681;BME280;18281;51.364;9.566;2023-05-02T04:51:18;100254.66;;;8.97;100.00
31681;BME280;18281;51.364;9.566;2023-05-02T04:53:43;100259.91;;;8.96;100.00
31681;BME280;18281;51.364;9.566;2023-05-02T04:56:09;100266.03;;;8.96;100.00
31681;BME280;18281;51.364;9.566;2023-05-02T04:58:35;100273.88;;;8.96;100.00
31681;BME280;18281;51.364;9.566;2023-05-02T05:01:00;100266.88;;;8.97;100.00
31681;BME280;18281;51.364;9.566;2023-05-02T05:03:26;100279.84;;;9.00;100.00
31681;BME280;18281;51.364;9.566;2023-05-02T05:05:53;100281.75;;;8.96;100.00
31681;BME280;18281;51.364;9.566;2023-05-02T05:08:19;100293.19;;;8.94;100.00
31681;BME280;18281;51.364;9.566;2023-05-02T05:10:44;100289.59;;;8.96;100.00
31681;BME280;18281;51.364;9.566;2023-05-02T05:13:10;100296.41;;;9.00;100.00
31681;BME280;18281;51.364;9.566;2023-05-02T05:15:36;100291.09;;;9.02;100.00
31681;BME280;18281;51.364;9.566;2023-05-02T05:18:02;100296.31;;;9.02;100.00
31681;BME280;18281;51.364;9.566;2023-05-02T05:20:27;100290.09;;;9.04;100.00
31681;BME280;18281;51.364;9.566;2023-05-02T05:22:52;100296.06;;;9.08;100.00
31681;BME280;18281;51.364;9.566;2023-05-02T05:25:17;100297.63;;;9.31;100.00
31681;BME280;18281;51.364;9.566;2023-05-02T05:27:43;100303.22;;;9.62;100.00
31681;BME280;18281;51.364;9.566;2023-05-02T05:30:08;100301.97;;;9.70;100.00
31681;BME280;18281;51.364;9.566;2023-05-02T05:32:34;100300.81;;;9.76;100.00
31681;BME280;18281;51.364;9.566;2023-05-02T05:35:00;100302.31;;;9.82;100.00
31681;BME280;18281;51.364;9.566;2023-05-02T05:37:25;100310.81;;;9.87;100.00
31681;BME280;18281;51.364;9.566;2023-05-02T05:39:50;100316.75;;;9.90;100.00
31681;BME280;18281;51.364;9.566;2023-05-02T05:42:16;100313.69;;;10.00;100.00
31681;BME280;18281;51.364;9.566;2023-05-02T05:44:41;100321.41;;;10.03;100.00
31681;BME280;18281;51.364;9.566;2023-05-02T05:47:06;100323.81;;;10.07;100.00
31681;BME280;18281;51.364;9.566;2023-05-02T05:49:32;100327.94;;;9.94;100.00
31681;BME280;18281;51.364;9.566;2023-05-02T05:51:57;100327.84;;;9.78;100.00
31681;BME280;18281;51.364;9.566;2023-05-02T05:54:23;100335.38;;;9.67;100.00
31681;BME280;18281;51.364;9.566;2023-05-02T05:56:48;100333.66;;;9.66;100.00
31681;BME280;18281;51.364;9.566;2023-05-02T05:59:13;100337.03;;;9.68;100.00
31681;BME280;18281;51.364;9.566;2023-05-02T06:01:39;100335.16;;;10.08;100.00
31681;BME280;18281;51.364;9.566;2023-05-02T06:04:05;100347.75;;;10.19;100.00
31681;BME280;18281;51.364;9.566;2023-05-02T06:06:31;100342.56;;;10.17;100.00
31681;BME280;18281;51.364;9.566;2023-05-02T06:08:56;100347.06;;;9.96;100.00
31681;BME280;18281;51.364;9.566;2023-05-02T06:11:22;100354.88;;;9.79;100.00
31681;BME280;18281;51.364;9.566;2023-05-02T06:13:50;100356.25;;;9.68;100.00
31681;BME280;18281;51.364;9.566;2023-05-02T06:16:15;100361.56;;;9.67;100.00
31681;BME280;18281;51.364;9.566;2023-05-02T06:18:42;100365.88;;;9.68;100.00
31681;BME280;18281;51.364;9.566;2023-05-02T06:21:07;100366.03;;;9.65;100.00
31681;BME280;18281;51.364;9.566;2023-05-02T06:23:33;100370.44;;;9.64;100.00
31681;BME280;18281;51.364;9.566;2023-05-02T06:25:59;100368.28;;;9.53;100.00
31681;BME280;18281;51.364;9.566;2023-05-02T06:28:25;100376.25;;;9.50;100.00
31681;BME280;18281;51.364;9.566;2023-05-02T06:31:01;100384.03;;;9.52;100.00
31681;BME280;18281;51.364;9.566;2023-05-02T06:33:28;100382.47;;;9.48;100.00
31681;BME280;18281;51.364;9.566;2023-05-02T06:35:53;100387.59;;;9.51;100.00
31681;BME280;18281;51.364;9.566;2023-05-02T06:38:19;100391.22;;;9.48;100.00
31681;BME280;18281;51.364;9.566;2023-05-02T06:40:45;100402.53;;;9.49;100.00
31681;BME280;18281;51.364;9.566;2023-05-02T06:43:11;100406.13;;;9.46;100.00
31681;BME280;18281;51.364;9.566;2023-05-02T06:45:37;100412.50;;;9.40;100.00
31681;BME280;18281;51.364;9.566;2023-05-02T06:48:03;100416.13;;;9.38;100.00
31681;BME280;18281;51.364;9.566;2023-05-02T06:50:28;100412.59;;;9.39;100.00
31681;BME280;18281;51.364;9.566;2023-05-02T06:52:54;100415.13;;;9.40;100.00
31681;BME280;18281;51.364;9.566;2023-05-02T06:55:19;100417.69;;;9.42;100.00
31681;BME280;18281;51.364;9.566;2023-05-02T06:57:45;100428.25;;;9.40;100.00
31681;BME280;18281;51.364;9.566;2023-05-02T07:00:11;100425.19;;;9.31;100.00
31681;BME280;18281;51.364;9.566;2023-05-02T07:02:37;100425.53;;;9.42;100.00
31681;BME280;18281;51.364;9.566;2023-05-02T07:05:02;100427.25;;;9.43;100.00
31681;BME280;18281;51.364;9.566;2023-05-02T07:07:29;100431.78;;;9.39;100.00
31681;BME280;18281;51.364;9.566;2023-05-02T07:09:54;100441.13;;;9.45;100.00
31681;BME280;18281;51.364;9.566;2023-05-02T07:12:19;100433.91;;;9.50;100.00
31681;BME280;18281;51.364;9.566;2023-05-02T07:14:45;100440.66;;;9.56;100.00
31681;BME280;18281;51.364;9.566;2023-05-02T07:17:11;100444.78;;;9.62;100.00
31681;BME280;18281;51.364;9.566;2023-05-02T07:19:36;100441.22;;;9.64;100.00
31681;BME280;18281;51.364;9.566;2023-05-02T07:22:02;100440.22;;;9.67;100.00
31681;BME280;18281;51.364;9.566;2023-05-02T07:24:27;100435.81;;;9.67;100.00
31681;BME280;18281;51.364;9.566;2023-05-02T07:26:53;100443.84;;;9.64;100.00
31681;BME280;18281;51.364;9.566;2023-05-02T07:29:18;100449.91;;;9.65;100.00
31681;BME280;18281;51.364;9.566;2023-05-02T07:31:43;100447.94;;;9.70;100.00
31681;BME280;18281;51.364;9.566;2023-05-02T07:34:09;100448.59;;;9.75;100.00
31681;BME280;18281;51.364;9.566;2023-05-02T07:36:34;100457.53;;;9.71;100.00
31681;BME280;18281;51.364;9.566;2023-05-02T07:38:59;100455.00;;;9.68;100.00
31681;BME280;18281;51.364;9.566;2023-05-02T07:41:24;100457.09;;;9.80;100.00
31681;BME280;18281;51.364;9.566;2023-05-02T07:43:50;100457.16;;;9.79;100.00
31681;BME280;18281;51.364;9.566;2023-05-02T07:46:15;100463.34;;;9.78;100.00
31681;BME280;18281;51.364;9.566;2023-05-02T07:48:40;100467.59;;;9.80;100.00
31681;BME280;18281;51.364;9.566;2023-05-02T07:51:07;100459.44;;;9.86;100.00
31681;BME280;18281;51.364;9.566;2023-05-02T07:53:33;100465.19;;;9.95;100.00
31681;BME280;18281;51.364;9.566;2023-05-02T07:55:59;100472.97;;;9.96;100.00
31681;BME280;18281;51.364;9.566;2023-05-02T07:58:24;100480.84;;;9.96;100.00
31681;BME280;18281;51.364;9.566;2023-05-02T08:00:49;100476.16;;;10.03;100.00
31681;BME280;18281;51.364;9.566;2023-05-02T08:03:15;100484.56;;;10.11;100.00
31681;BME280;18281;51.364;9.566;2023-05-02T08:05:40;100481.78;;;10.14;100.00
31681;BME280;18281;51.364;9.566;2023-05-02T08:08:06;100489.84;;;10.09;100.00
31681;BME280;18281;51.364;9.566;2023-05-02T08:10:31;100489.66;;;10.14;100.00
31681;BME280;18281;51.364;9.566;2023-05-02T08:12:57;100493.41;;;10.28;100.00
31681;BME280;18281;51.364;9.566;2023-05-02T08:15:22;100493.75;;;10.39;100.00
31681;BME280;18281;51.364;9.566;2023-05-02T08:17:47;100489.56;;;10.54;100.00
31681;BME280;18281;51.364;9.566;2023-05-02T08:20:13;100497.28;;;10.57;100.00
31681;BME280;18281;51.364;9.566;2023-05-02T08:22:38;100495.38;;;10.61;100.00
31681;BME280;18281;51.364;9.566;2023-05-02T08:25:04;100495.97;;;10.66;100.00
31681;BME280;18281;51.364;9.566;2023-05-02T08:27:29;100510.81;;;10.67;100.00
31681;BME280;18281;51.364;9.566;2023-05-02T08:29:54;100516.22;;;10.64;100.00
31681;BME280;18281;51.364;9.566;2023-05-02T08:32:20;100514.75;;;10.58;100.00
31681;BME280;18281;51.364;9.566;2023-05-02T08:34:46;100516.44;;;10.59;100.00
31681;BME280;18281;51.364;9.566;2023-05-02T08:37:12;100522.63;;;10.58;100.00
31681;BME280;18281;51.364;9.566;2023-05-02T08:39:37;100523.47;;;10.58;100.00
31681;BME280;18281;51.364;9.566;2023-05-02T08:42:06;100529.50;;;10.61;100.00
31681;BME280;18281;51.364;9.566;2023-05-02T08:44:32;100527.88;;;10.58;100.00
31681;BME280;18281;51.364;9.566;2023-05-02T08:46:59;100536.53;;;10.60;100.00
31681;BME280;18281;51.364;9.566;2023-05-02T08:49:25;100531.31;;;10.78;100.00
31681;BME280;18281;51.364;9.566;2023-05-02T08:51:52;100539.81;;;11.02;100.00
31681;BME280;18281;51.364;9.566;2023-05-02T08:54:19;100546.59;;;11.06;100.00
31681;BME280;18281;51.364;9.566;2023-05-02T08:56:46;100542.38;;;11.03;100.00
31681;BME280;18281;51.364;9.566;2023-05-02T08:59:11;100555.56;;;11.02;100.00
31681;BME280;18281;51.364;9.566;2023-05-02T09:01:39;100556.56;;;10.99;100.00
31681;BME280;18281;51.364;9.566;2023-05-02T09:04:05;100558.34;;;10.99;100.00
31681;BME280;18281;51.364;9.566;2023-05-02T09:06:31;100571.78;;;10.92;100.00
31681;BME280;18281;51.364;9.566;2023-05-02T09:08:58;100572.72;;;10.91;100.00
31681;BME280;18281;51.364;9.566;2023-05-02T09:11:24;100594.84;;;10.86;100.00
31681;BME280;18281;51.364;9.566;2023-05-02T09:13:50;100586.13;;;10.85;100.00
31681;BME280;18281;51.364;9.566;2023-05-02T09:16:21;100598.50;;;10.83;100.00
31681;BME280;18281;51.364;9.566;2023-05-02T09:18:49;100596.00;;;10.80;100.00
31681;BME280;18281;51.364;9.566;2023-05-02T09:21:20;100600.34;;;10.62;100.00
31681;BME280;18281;51.364;9.566;2023-05-02T09:23:50;100602.09;;;10.62;100.00
31681;BME280;18281;51.364;9.566;2023-05-02T09:26:22;100608.06;;;10.65;100.00
31681;BME280;18281;51.364;9.566;2023-05-02T09:28:54;100617.84;;;10.62;100.00
31681;BME280;18281;51.364;9.566;2023-05-02T09:31:24;100608.91;;;10.66;100.00
31681;BME280;18281;51.364;9.566;2023-05-02T09:33:50;100622.03;;;10.66;100.00
31681;BME280;18281;51.364;9.566;2023-05-02T09:36:18;100624.72;;;10.64;100.00
31681;BME280;18281;51.364;9.566;2023-05-02T09:38:46;100620.69;;;10.57;100.00
31681;BME280;18281;51.364;9.566;2023-05-02T09:41:12;100636.28;;;10.60;100.00
31681;BME280;18281;51.364;9.566;2023-05-02T09:43:38;100633.91;;;10.55;100.00
31681;BME280;18281;51.364;9.566;2023-05-02T09:46:09;100633.91;;;10.55;100.00
31681;BME280;18281;51.364;9.566;2023-05-02T09:48:54;100639.78;;;10.61;100.00
31681;BME280;18281;51.364;9.566;2023-05-02T09:51:21;100634.31;;;10.65;100.00
31681;BME280;18281;51.364;9.566;2023-05-02T09:53:47;100643.19;;;10.23;100.00
31681;BME280;18281;51.364;9.566;2023-05-02T09:56:12;100643.81;;;10.49;100.00
31681;BME280;18281;51.364;9.566;2023-05-02T09:58:38;100645.97;;;10.59;100.00
31681;BME280;18281;51.364;9.566;2023-05-02T10:01:03;100644.97;;;10.62;100.00
31681;BME280;18281;51.364;9.566;2023-05-02T10:03:29;100650.91;;;10.66;100.00
31681;BME280;18281;51.364;9.566;2023-05-02T10:05:56;100655.06;;;10.71;100.00
31681;BME280;18281;51.364;9.566;2023-05-02T10:08:25;100654.69;;;10.79;100.00
31681;BME280;18281;51.364;9.566;2023-05-02T10:10:55;100661.72;;;10.79;100.00
31681;BME280;18281;51.364;9.566;2023-05-02T10:13:22;100654.69;;;10.79;100.00
31681;BME280;18281;51.364;9.566;2023-05-02T10:18:51;100662.38;;;10.65;100.00
31681;BME280;18281;51.364;9.566;2023-05-02T10:21:25;100662.00;;;10.72;100.00
31681;BME280;18281;51.364;9.566;2023-05-02T10:23:53;100668.69;;;10.80;100.00
31681;BME280;18281;51.364;9.566;2023-05-02T10:26:19;100669.47;;;10.82;98.93
31681;BME280;18281;51.364;9.566;2023-05-02T10:28:48;100672.81;;;10.85;99.40
31681;BME280;18281;51.364;9.566;2023-05-02T10:31:17;100665.03;;;10.84;96.88
31681;BME280;18281;51.364;9.566;2023-05-02T10:33:43;100663.88;;;10.89;97.57
31681;BME280;18281;51.364;9.566;2023-05-02T10:36:10;100660.34;;;10.90;95.33
31681;BME280;18281;51.364;9.566;2023-05-02T10:38:39;100651.22;;;10.98;96.60
31681;BME280;18281;51.364;9.566;2023-05-02T10:41:15;100658.56;;;10.91;96.92
31681;BME280;18281;51.364;9.566;2023-05-02T10:43:45;100659.50;;;10.90;95.81
31681;BME280;18281;51.364;9.566;2023-05-02T10:49:03;100672.13;;;11.01;95.71
31681;BME280;18281;51.364;9.566;2023-05-02T10:51:30;100670.09;;;11.06;94.75
31681;BME280;18281;51.364;9.566;2023-05-02T10:59:29;100673.38;;;11.11;92.42
31681;BME280;18281;51.364;9.566;2023-05-02T11:01:55;100681.13;;;11.14;94.98
31681;BME280;18281;51.364;9.566;2023-05-02T11:04:20;100685.44;;;11.15;93.89
31681;BME280;18281;51.364;9.566;2023-05-02T11:11:46;100694.97;;;11.18;92.33
31681;BME280;18281;51.364;9.566;2023-05-02T11:17:07;100698.81;;;11.11;92.43
31681;BME280;18281;51.364;9.566;2023-05-02T11:24:47;100706.47;;;11.15;92.47
31681;BME280;18281;51.364;9.566;2023-05-02T11:30:04;100713.66;;;11.12;92.13
31681;BME280;18281;51.364;9.566;2023-05-02T11:35:22;100716.72;;;11.21;92.33
31681;BME280;18281;51.364;9.566;2023-05-02T11:38:12;100720.97;;;11.24;90.65
31681;BME280;18281;51.364;9.566;2023-05-02T11:40:38;100715.06;;;11.19;88.97
31681;BME280;18281;51.364;9.566;2023-05-02T11:43:14;100719.25;;;11.23;89.50
31681;BME280;18281;51.364;9.566;2023-05-02T11:45:40;100726.44;;;11.19;90.58
31681;BME280;18281;51.364;9.566;2023-05-02T11:48:07;100728.38;;;11.16;91.47
31681;BME280;18281;51.364;9.566;2023-05-02T11:50:43;100731.34;;;11.08;91.24
31681;BME280;18281;51.364;9.566;2023-05-02T11:53:14;100729.50;;;11.10;91.07
31681;BME280;18281;51.364;9.566;2023-05-02T11:56:05;100732.91;;;11.12;90.63
31681;BME280;18281;51.364;9.566;2023-05-02T11:58:31;100738.16;;;11.12;90.34
31681;BME280;18281;51.364;9.566;2023-05-02T12:00:58;100730.91;;;11.17;89.61
31681;BME280;18281;51.364;9.566;2023-05-02T12:03:35;100731.28;;;11.09;90.73
31681;BME280;18281;51.364;9.566;2023-05-02T12:06:12;100735.38;;;11.15;89.93
31681;BME280;18281;51.364;9.566;2023-05-02T12:08:39;100742.69;;;11.08;90.13
31681;BME280;18281;51.364;9.566;2023-05-02T12:11:05;100740.13;;;11.07;89.80
31681;BME280;18281;51.364;9.566;2023-05-02T12:13:31;100746.28;;;11.07;89.79
31681;BME280;18281;51.364;9.566;2023-05-02T12:15:56;100750.56;;;10.89;89.11
31681;BME280;18281;51.364;9.566;2023-05-02T12:18:23;100748.53;;;10.96;88.22
31681;BME280;18281;51.364;9.566;2023-05-02T12:20:50;100742.13;;;10.83;87.55
31681;BME280;18281;51.364;9.566;2023-05-02T12:23:17;100749.44;;;10.95;88.27
31681;BME280;18281;51.364;9.566;2023-05-02T12:25:43;100747.38;;;11.02;87.65
31681;BME280;18281;51.364;9.566;2023-05-02T12:28:09;100754.19;;;10.87;87.25
31681;BME280;18281;51.364;9.566;2023-05-02T12:30:36;100757.88;;;10.83;87.75
31681;BME280;18281;51.364;9.566;2023-05-02T12:33:06;100769.09;;;10.86;87.67
31681;BME280;18281;51.364;9.566;2023-05-02T12:35:32;100762.28;;;10.82;86.99
31681;BME280;18281;51.364;9.566;2023-05-02T12:38:10;100771.88;;;10.83;87.33
31681;BME280;18281;51.364;9.566;2023-05-02T12:40:36;100766.19;;;10.92;87.58
31681;BME280;18281;51.364;9.566;2023-05-02T12:43:03;100777.50;;;10.95;87.53
31681;BME280;18281;51.364;9.566;2023-05-02T12:45:30;100785.63;;;10.88;87.14
31681;BME280;18281;51.364;9.566;2023-05-02T12:50:41;100798.09;;;11.04;86.37
31681;BME280;18281;51.364;9.566;2023-05-02T12:53:07;100794.91;;;10.97;87.04
31681;BME280;18281;51.364;9.566;2023-05-02T12:55:33;100800.09;;;10.99;86.46
31681;BME280;18281;51.364;9.566;2023-05-02T12:58:02;100794.69;;;11.02;86.41
31681;BME280;18281;51.364;9.566;2023-05-02T13:00:28;100798.88;;;11.06;87.11
31681;BME280;18281;51.364;9.566;2023-05-02T13:02:54;100798.59;;;11.12;86.61
31681;BME280;18281;51.364;9.566;2023-05-02T13:05:20;100813.88;;;11.04;86.32
31681;BME280;18281;51.364;9.566;2023-05-02T13:07:45;100819.28;;;11.01;87.13
31681;BME280;18281;51.364;9.566;2023-05-02T13:10:11;100818.31;;;11.02;85.82
31681;BME280;18281;51.364;9.566;2023-05-02T13:12:38;100826.78;;;11.08;85.78
31681;BME280;18281;51.364;9.566;2023-05-02T13:15:04;100817.47;;;11.01;84.51
31681;BME280;18281;51.364;9.566;2023-05-02T13:17:30;100827.44;;;11.14;87.70
31681;BME280;18281;51.364;9.566;2023-05-02T13:19:56;100826.69;;;11.31;91.80
31681;BME280;18281;51.364;9.566;2023-05-02T13:22:21;100822.50;;;11.46;94.08
31681;BME280;18281;51.364;9.566;2023-05-02T13:24:46;100832.03;;;11.48;91.70
31681;BME280;18281;51.364;9.566;2023-05-02T13:27:12;100833.00;;;11.46;90.07
31681;BME280;18281;51.364;9.566;2023-05-02T13:29:37;100833.28;;;11.39;89.00
31681;BME280;18281;51.364;9.566;2023-05-02T13:32:02;100847.72;;;11.31;87.35